Time;durP1;ratioP1;P1;durP2;ratioP2;P2;SDS_P1;SDS_P2;PMS_P1;PMS_P2;Temp;Humidity;BMP_temperature;BMP_pressure;BME280_temperature;BME280_humidity;BME280_pressure;Samples;Min_cycle;Max_cycle;Signal;HPM_P1;HPM_P2
2021/04/27 00:01:52;;;;;;;2.40;1.57;;;;;;;2.12;58.82;98197.66;3772996;78;43972;-26
2021/04/27 00:06:57;;;;;;;4.23;1.80;;;;;;;2.06;59.11;98191.45;3773148;77;43681;-27
2021/04/27 00:12:04;;;;;;;3.27;1.63;;;;;;;2.03;58.40;98185.53;3773804;78;44074;-26
2021/04/27 00:17:11;;;;;;;3.10;1.57;;;;;;;1.97;59.87;98185.50;3772758;78;44025;-28
2021/04/27 00:22:17;;;;;;;3.67;1.80;;;;;;;1.94;60.25;98177.77;3774356;77;42746;-27
2021/04/27 00:27:23;;;;;;;4.07;1.60;;;;;;;1.90;60.02;98178.95;3771918;77;44042;-27
2021/04/27 00:32:29;;;;;;;2.50;1.60;;;;;;;1.85;60.37;98176.14;3775300;77;43627;-26
2021/04/27 00:37:35;;;;;;;1.73;1.30;;;;;;;1.81;61.09;98173.36;3769277;77;43396;-27
2021/04/27 00:42:45;;;;;;;3.37;1.70;;;;;;;1.77;60.62;98167.03;3774773;78;43346;-26
2021/04/27 00:47:52;;;;;;;2.53;1.70;;;;;;;1.72;61.27;98161.22;3772611;77;43721;-27
2021/04/27 00:52:59;;;;;;;3.07;1.50;;;;;;;1.67;61.47;98148.28;3774360;78;43471;-26
2021/04/27 00:58:06;;;;;;;3.50;1.50;;;;;;;1.64;61.76;98147.17;3764487;77;44080;-26
2021/04/27 01:03:11;;;;;;;3.73;1.70;;;;;;;1.56;62.32;98149.54;3774609;77;43341;-26
2021/04/27 01:08:20;;;;;;;2.70;1.60;;;;;;;1.51;62.31;98145.41;3770822;78;43706;-26
2021/04/27 01:13:30;;;;;;;2.27;1.53;;;;;;;1.46;62.73;98146.23;3775331;78;43457;-26
2021/04/27 01:18:38;;;;;;;5.90;1.90;;;;;;;1.42;62.54;98142.09;3764702;77;43362;-26
2021/04/27 01:24:02;;;;;;;3.27;1.60;;;;;;;1.35;61.87;98146.16;3773807;77;43982;-26
2021/04/27 01:29:11;;;;;;;3.77;1.70;;;;;;;1.32;62.79;98150.34;3768582;77;43289;-26
2021/04/27 01:34:21;;;;;;;3.70;1.87;;;;;;;1.15;64.39;98142.27;3774179;77;43246;-26
2021/04/27 01:39:29;;;;;;;4.93;1.80;;;;;;;0.98;65.99;98135.49;3774608;77;42903;-26
2021/04/27 01:44:36;;;;;;;2.80;1.60;;;;;;;0.83;68.27;98128.97;3773930;78;43683;-26
2021/04/27 01:49:45;;;;;;;3.03;1.60;;;;;;;0.69;68.46;98129.95;3772051;77;43677;-26
2021/04/27 01:54:53;;;;;;;2.33;1.57;;;;;;;0.77;68.87;98120.10;3759218;77;26323;-27
2021/04/27 01:59:59;;;;;;;3.30;1.60;;;;;;;0.86;67.43;98113.31;3773999;77;43310;-26
2021/04/27 02:05:11;;;;;;;3.03;1.80;;;;;;;1.05;66.30;98121.70;3771647;77;26643;-27
2021/04/27 02:10:23;;;;;;;3.53;1.70;;;;;;;1.01;66.36;98123.31;3769089;77;26372;-26
2021/04/27 02:15:31;;;;;;;3.20;1.70;;;;;;;0.94;67.40;98110.13;3774679;77;43455;-26
2021/04/27 02:20:40;;;;;;;2.83;1.63;;;;;;;0.83;67.87;98110.41;3773360;77;43711;-26
2021/04/27 02:25:50;;;;;;;3.73;1.80;;;;;;;0.78;67.86;98116.99;3767295;78;26290;-26
2021/04/27 02:30:57;;;;;;;3.20;2.00;;;;;;;0.74;67.12;98121.17;3774613;78;44595;-26
2021/04/27 02:36:05;;;;;;;1.87;1.40;;;;;;;0.78;68.31;98105.06;3770140;77;43417;-26
2021/04/27 02:41:18;;;;;;;2.43;1.70;;;;;;;0.74;69.23;98110.56;3762766;78;26442;-26
2021/04/27 02:46:24;;;;;;;2.33;1.40;;;;;;;0.78;69.45;98095.28;3790605;77;42946;-26
2021/04/27 02:51:33;;;;;;;6.80;2.00;;;;;;;0.78;67.83;98092.63;3825966;76;26693;-26
2021/04/27 02:56:43;;;;;;;4.30;1.90;;;;;;;0.67;69.63;98087.23;3822569;77;26367;-26
2021/04/27 03:01:51;;;;;;;6.07;1.70;;;;;;;0.41;71.79;98085.94;3824988;77;26453;-25
2021/04/27 03:06:57;;;;;;;2.50;1.87;;;;;;;0.24;72.87;98083.95;3822309;76;44072;-24
2021/04/27 03:12:07;;;;;;;3.60;2.33;;;;;;;0.12;74.33;98077.67;3828227;77;26288;-25
2021/04/27 03:17:14;;;;;;;4.20;2.00;;;;;;;-0.07;75.52;98079.42;3822876;77;27080;-24
2021/04/27 03:22:25;;;;;;;4.70;2.50;;;;;;;-0.14;77.33;98074.63;3825328;76;26360;-24
2021/04/27 03:27:31;;;;;;;3.70;1.93;;;;;;;-0.19;76.56;98077.09;3822062;77;43964;-24
2021/04/27 03:32:51;;;;;;;2.63;1.90;;;;;;;-0.30;79.46;98072.16;3808934;76;26437;-24
2021/04/27 03:37:57;;;;;;;3.20;2.00;;;;;;;-0.40;78.56;98079.35;3823226;77;43317;-24
2021/04/27 03:43:04;;;;;;;4.33;2.00;;;;;;;-0.49;78.80;98083.47;3828754;76;43977;-24
2021/04/27 03:48:15;;;;;;;3.80;2.10;;;;;;;-0.59;80.20;98082.84;3812127;76;26444;-24
2021/04/27 03:53:29;;;;;;;4.50;1.90;;;;;;;-0.62;79.82;98075.47;3804631;78;26734;-24
2021/04/27 03:58:35;;;;;;;3.87;2.13;;;;;;;-0.66;80.47;98076.62;3800949;78;43674;-24
2021/04/27 04:03:41;;;;;;;6.07;2.30;;;;;;;-0.77;81.72;98075.16;3809289;76;43809;-24
2021/04/27 04:08:49;;;;;;;3.70;1.90;;;;;;;-0.83;83.00;98075.53;3804922;78;44262;-24
2021/04/27 04:13:56;;;;;;;6.70;2.60;;;;;;;-0.84;83.34;98076.47;3801734;77;44075;-24
2021/04/27 04:19:03;;;;;;;4.60;2.10;;;;;;;-0.88;83.78;98072.34;3804543;76;43995;-24
2021/04/27 04:24:12;;;;;;;4.63;2.30;;;;;;;-1.00;87.95;98073.47;3805545;78;44034;-24
2021/04/27 04:29:18;;;;;;;3.40;2.50;;;;;;;-1.01;87.42;98074.45;3804894;78;43412;-24
2021/04/27 04:34:26;;;;;;;4.97;2.40;;;;;;;-0.92;89.21;98076.12;3801191;76;26691;-24
2021/04/27 04:39:50;;;;;;;3.13;2.10;;;;;;;-0.86;87.38;98070.42;3805120;78;26403;-24
2021/04/27 04:45:21;;;;;;;3.20;2.23;;;;;;;-0.82;90.52;98074.59;3800424;76;26277;-24
2021/04/27 04:50:45;;;;;;;4.07;2.10;;;;;;;-0.95;89.72;98080.66;3777301;77;26316;-24
2021/04/27 04:56:04;;;;;;;4.60;2.33;;;;;;;-0.99;88.41;98080.46;3771316;78;27269;-24
2021/04/27 05:01:12;;;;;;;3.97;2.37;;;;;;;-0.98;89.70;98082.16;3775723;78;26703;-24
2021/04/27 05:06:20;;;;;;;6.33;2.37;;;;;;;-0.94;90.42;98084.13;3759716;78;27561;-24
2021/04/27 05:11:28;;;;;;;5.20;2.30;;;;;;;-0.91;93.94;98087.91;3761297;78;26823;-24
2021/04/27 05:16:36;;;;;;;2.83;2.13;;;;;;;-0.79;90.79;98077.05;3773507;77;26742;-24
2021/04/27 05:21:43;;;;;;;7.63;2.00;;;;;;;-0.56;91.28;98074.70;3768573;77;43329;-25
2021/04/27 05:26:50;;;;;;;5.60;2.33;;;;;;;-0.04;86.61;98073.89;3773562;77;28570;-25
2021/04/27 05:31:56;;;;;;;4.77;2.20;;;;;;;0.38;83.83;98067.10;3774933;78;43368;-25
2021/04/27 05:37:04;;;;;;;3.43;2.20;;;;;;;0.61;80.35;98065.52;3773735;77;43308;-24
2021/04/27 05:42:10;;;;;;;5.87;2.20;;;;;;;0.89;79.12;98063.55;3774903;78;43283;-24
2021/04/27 05:47:16;;;;;;;3.80;2.20;;;;;;;1.16;79.18;98067.02;3774261;77;44011;-25
2021/04/27 05:52:22;;;;;;;4.33;2.30;;;;;;;1.42;76.60;98066.90;3804458;77;43262;-24
2021/04/27 05:57:28;;;;;;;4.90;2.00;;;;;;;1.68;75.69;98067.16;3803459;78;43686;-24
2021/04/27 06:02:34;;;;;;;5.70;2.27;;;;;;;1.96;74.11;98068.23;3805528;76;43488;-24
2021/04/27 06:07:41;;;;;;;5.50;2.10;;;;;;;2.12;71.61;98069.23;3802866;78;44001;-25
2021/04/27 06:12:47;;;;;;;3.40;2.10;;;;;;;2.45;70.93;98068.48;3806094;77;43686;-24
2021/04/27 06:17:53;;;;;;;3.27;2.40;;;;;;;2.66;69.31;98063.77;3802670;76;44922;-24
2021/04/27 06:23:00;;;;;;;5.33;2.70;;;;;;;2.86;68.30;98066.70;3804454;77;43456;-25
2021/04/27 06:28:06;;;;;;;4.60;2.40;;;;;;;3.08;68.28;98061.36;3803636;78;43682;-24
2021/04/27 06:33:12;;;;;;;4.33;2.13;;;;;;;3.28;66.40;98060.23;3804852;76;44086;-25
2021/04/27 06:38:20;;;;;;;4.73;2.43;;;;;;;3.50;69.48;98059.81;3805396;76;43715;-25
2021/04/27 06:43:27;;;;;;;3.80;2.37;;;;;;;3.69;67.09;98061.34;3807114;76;44182;-25
2021/04/27 06:48:34;;;;;;;5.63;2.63;;;;;;;3.98;60.78;98052.73;3792151;77;44039;-25
2021/04/27 06:53:41;;;;;;;5.33;2.63;;;;;;;4.23;57.95;98049.33;3775359;77;43685;-25
2021/04/27 06:58:47;;;;;;;5.07;2.40;;;;;;;4.38;57.38;98042.34;3770681;77;44002;-25
2021/04/27 07:03:52;;;;;;;4.10;2.47;;;;;;;4.60;56.75;98036.84;3774448;77;43687;-25
2021/04/27 07:08:59;;;;;;;4.57;2.50;;;;;;;4.75;55.69;98033.83;3774491;78;44102;-25
2021/04/27 07:14:07;;;;;;;6.03;2.50;;;;;;;5.00;56.82;98035.67;3774158;77;43949;-25
2021/04/27 07:19:13;;;;;;;3.15;2.30;;;;;;;5.20;56.93;98031.21;3770545;77;44106;-25
2021/04/27 07:24:21;;;;;;;7.50;2.90;;;;;;;5.38;55.10;98030.05;3770230;77;43432;-25
2021/04/27 07:29:26;;;;;;;3.73;2.60;;;;;;;5.52;55.00;98021.64;3773570;77;42814;-25
2021/04/27 07:34:33;;;;;;;5.37;3.17;;;;;;;5.63;54.46;98020.68;3774331;77;44012;-25
2021/04/27 07:39:39;;;;;;;7.87;2.90;;;;;;;5.76;53.67;98017.72;3769653;78;43678;-25
2021/04/27 07:44:45;;;;;;;4.37;2.80;;;;;;;5.87;54.24;98010.06;3774849;78;44547;-25
2021/04/27 07:49:52;;;;;;;3.77;2.90;;;;;;;6.13;52.74;98008.14;3772924;77;43373;-24
2021/04/27 07:54:57;;;;;;;7.87;3.50;;;;;;;6.27;52.96;98009.03;3774589;78;43392;-26
2021/04/27 08:00:08;;;;;;;6.08;3.20;;;;;;;6.31;51.17;98009.59;3772965;77;44174;-25
2021/04/27 08:05:16;;;;;;;4.95;3.45;;;;;;;6.52;52.58;98007.23;3772532;77;26359;-25
2021/04/27 08:10:23;;;;;;;6.08;3.27;;;;;;;6.71;52.04;98000.94;3774190;77;43721;-25
2021/04/27 08:15:31;;;;;;;6.37;3.30;;;;;;;6.83;52.04;97992.23;3773447;78;43444;-25
2021/04/27 08:20:39;;;;;;;4.95;3.60;;;;;;;7.04;52.15;97994.67;3771499;77;44142;-25
2021/04/27 08:25:46;;;;;;;5.05;3.10;;;;;;;7.15;51.18;97989.59;3769554;77;43721;-25
2021/04/27 08:30:53;;;;;;;6.67;3.83;;;;;;;7.25;50.12;97992.57;3771859;77;44008;-24
2021/04/27 08:36:00;;;;;;;4.53;3.22;;;;;;;7.43;51.41;97993.08;3772863;77;43710;-25
2021/04/27 08:41:08;;;;;;;7.78;3.20;;;;;;;7.67;50.02;98002.35;3774926;78;43614;-25
2021/04/27 08:46:14;;;;;;;4.95;3.35;;;;;;;7.70;50.95;97989.48;3772523;78;44049;-25
2021/04/27 08:51:22;;;;;;;6.30;3.10;;;;;;;7.80;49.55;97994.77;3805333;77;43952;-25
2021/04/27 08:56:30;;;;;;;7.12;3.65;;;;;;;7.88;49.53;97992.66;3823896;76;43193;-26
2021/04/27 09:01:37;;;;;;;4.95;3.52;;;;;;;7.93;49.11;97979.64;3828032;76;43670;-25
2021/04/27 09:06:49;;;;;;;5.08;3.45;;;;;;;8.24;49.35;97985.89;3827887;76;44074;-25
2021/04/27 09:11:54;;;;;;;5.57;3.13;;;;;;;8.33;49.02;97972.86;3822786;77;43871;-25
2021/04/27 09:17:05;;;;;;;6.03;3.70;;;;;;;8.45;48.51;97965.89;3826115;77;43680;-25
2021/04/27 09:22:18;;;;;;;4.30;3.47;;;;;;;8.39;48.39;97962.00;3829581;76;43757;-26
2021/04/27 09:27:29;;;;;;;6.30;3.58;;;;;;;8.77;49.56;97960.36;3817785;77;69192;-26
2021/04/27 09:32:38;;;;;;;8.60;3.77;;;;;;;8.96;49.29;97951.20;3829228;76;44106;-25
2021/04/27 09:38:05;;;;;;;5.05;3.72;;;;;;;9.08;47.61;97943.70;3827134;76;43412;-25
2021/04/27 09:43:12;;;;;;;6.65;3.47;;;;;;;9.14;47.16;97941.69;3828660;76;44089;-26
2021/04/27 09:48:36;;;;;;;4.47;3.60;;;;;;;9.28;47.63;97944.75;3826384;76;44074;-25
2021/04/27 09:53:46;;;;;;;5.80;3.85;;;;;;;9.58;47.48;97935.22;3756108;79;43745;-25
2021/04/27 09:59:02;;;;;;;4.62;3.87;;;;;;;9.46;46.39;97933.38;3756816;79;44033;-25
2021/04/27 10:04:09;;;;;;;4.90;3.62;;;;;;;9.71;46.54;97925.30;3758669;77;44011;-26
2021/04/27 10:09:17;;;;;;;5.28;3.80;;;;;;;9.90;45.96;97921.42;3677501;79;44099;-25
2021/04/27 10:14:24;;;;;;;6.08;3.75;;;;;;;9.76;44.53;97912.19;3760333;77;43355;-25
2021/04/27 10:19:30;;;;;;;5.90;3.95;;;;;;;10.07;45.88;97904.75;3756746;77;44024;-25
2021/04/27 10:24:38;;;;;;;5.75;3.83;;;;;;;10.30;44.79;97899.98;3759653;79;44483;-24
2021/04/27 10:29:44;;;;;;;6.05;3.77;;;;;;;10.33;45.23;97894.27;3680291;80;44015;-24
2021/04/27 10:35:12;;;;;;;6.00;4.05;;;;;;;10.30;43.55;97878.45;3759945;77;43974;-24
2021/04/27 10:40:44;;;;;;;5.50;3.83;;;;;;;10.42;44.83;97882.48;3755652;77;44062;-25
2021/04/27 10:45:51;;;;;;;8.10;3.95;;;;;;;10.47;42.87;97862.61;3754463;79;43373;-25
2021/04/27 10:50:59;;;;;;;7.50;4.47;;;;;;;10.66;44.67;97860.50;3783082;77;44092;-25
2021/04/27 10:56:06;;;;;;;5.42;3.92;;;;;;;11.00;43.24;97853.91;3828427;76;43999;-25
2021/04/27 11:01:20;;;;;;;5.05;4.17;;;;;;;10.92;43.54;97848.58;3824443;77;44102;-25
2021/04/27 11:06:26;;;;;;;5.58;3.87;;;;;;;11.28;44.01;97849.88;3829935;76;44002;-25
2021/04/27 11:11:33;;;;;;;10.90;4.30;;;;;;;11.36;43.48;97851.98;3824889;76;44031;-25
2021/04/27 11:16:42;;;;;;;5.33;4.12;;;;;;;11.22;41.93;97836.08;3832293;76;43214;-25
2021/04/27 11:21:51;;;;;;;6.65;4.35;;;;;;;11.50;42.72;97826.09;3823584;76;43682;-24
2021/04/27 11:26:57;;;;;;;8.23;4.20;;;;;;;11.77;42.09;97829.72;3827001;76;44040;-25
2021/04/27 11:32:09;;;;;;;5.10;4.10;;;;;;;11.58;40.79;97831.94;3830051;77;43962;-25
2021/04/27 11:37:19;;;;;;;6.10;4.30;;;;;;;11.85;42.48;97809.39;3830290;76;43722;-25
2021/04/27 11:42:27;;;;;;;8.63;4.30;;;;;;;11.92;41.17;97800.05;3829476;76;44101;-26
2021/04/27 11:47:38;;;;;;;6.15;4.30;;;;;;;12.04;41.67;97811.27;3796981;76;44030;-25
2021/04/27 11:52:51;;;;;;;7.22;4.30;;;;;;;12.46;41.95;97807.05;3798194;77;43688;-25
2021/04/27 11:58:01;;;;;;;6.42;4.30;;;;;;;12.79;42.08;97803.89;3772273;78;43677;-25
2021/04/27 12:03:41;;;;;;;7.35;4.40;;;;;;;13.00;41.10;97799.53;3774871;77;43486;-25
2021/04/27 12:08:48;;;;;;;5.87;4.37;;;;;;;13.28;41.01;97796.06;3773259;78;43209;-26
2021/04/27 12:13:57;;;;;;;6.75;3.92;;;;;;;13.48;40.83;97788.98;3772829;77;43356;-26
2021/04/27 12:19:06;;;;;;;7.95;4.37;;;;;;;13.76;38.76;97782.75;3768584;77;43704;-26
2021/04/27 12:24:16;;;;;;;7.60;4.78;;;;;;;13.67;39.84;97777.17;3775139;77;43596;-26
2021/04/27 12:29:34;;;;;;;7.22;4.85;;;;;;;13.60;39.30;97772.20;3768932;78;43394;-26
2021/04/27 12:34:54;;;;;;;6.25;3.98;;;;;;;13.46;39.00;97769.42;3775787;77;43672;-26
2021/04/27 12:40:04;;;;;;;5.90;4.58;;;;;;;13.49;37.51;97750.06;3774226;77;43679;-26
2021/04/27 12:45:12;;;;;;;5.62;4.08;;;;;;;13.43;39.19;97753.57;3777596;77;44059;-27
2021/04/27 12:50:20;;;;;;;8.80;4.30;;;;;;;13.20;39.53;97750.55;3766832;77;44424;-25
2021/04/27 12:55:30;;;;;;;6.47;4.70;;;;;;;13.77;38.29;97745.17;3696740;79;44220;-26
2021/04/27 13:00:47;;;;;;;5.65;4.50;;;;;;;14.00;37.43;97737.28;3690936;79;44432;-26
2021/04/27 13:05:54;;;;;;;12.30;5.22;;;;;;;14.37;37.49;97731.09;3695973;79;43328;-25
2021/04/27 13:11:03;;;;;;;5.87;4.75;;;;;;;13.58;38.29;97725.59;3693198;79;43404;-26
2021/04/27 13:16:14;;;;;;;7.85;4.90;;;;;;;13.84;37.32;97711.38;3694769;80;43864;-26
2021/04/27 13:21:21;;;;;;;6.53;5.00;;;;;;;14.07;38.47;97721.88;3694535;79;43444;-26
2021/04/27 13:26:27;;;;;;;6.62;4.87;;;;;;;15.01;37.19;97709.98;3695283;79;41897;-26
2021/04/27 13:31:33;;;;;;;5.42;4.60;;;;;;;14.75;37.71;97702.66;3697941;79;43627;-26
2021/04/27 13:36:39;;;;;;;5.95;4.60;;;;;;;15.09;36.71;97689.45;3699025;79;44007;-26
2021/04/27 13:41:45;;;;;;;9.38;5.10;;;;;;;15.62;36.48;97685.54;3697120;79;43427;-26
2021/04/27 13:46:57;;;;;;;7.40;5.22;;;;;;;15.68;34.87;97672.45;3693446;79;43970;-26
2021/04/27 13:52:03;;;;;;;6.20;4.80;;;;;;;16.16;35.00;97676.73;3718688;77;43447;-27
2021/04/27 13:57:09;;;;;;;9.48;4.92;;;;;;;16.10;35.31;97656.69;3803352;77;43440;-26
2021/04/27 14:02:16;;;;;;;7.28;4.87;;;;;;;15.10;35.35;97659.08;3804858;77;44018;-26
2021/04/27 14:07:24;;;;;;;7.12;4.95;;;;;;;15.50;37.12;97651.41;3797879;78;44055;-26
2021/04/27 14:12:30;;;;;;;7.72;5.67;;;;;;;15.01;35.59;97649.48;3804477;78;43303;-26
2021/04/27 14:17:39;;;;;;;7.90;5.50;;;;;;;15.56;34.57;97644.61;3799481;76;44025;-26
2021/04/27 14:22:46;;;;;;;6.47;5.25;;;;;;;15.88;34.55;97642.56;3803303;77;43208;-26
2021/04/27 14:27:52;;;;;;;6.78;5.40;;;;;;;16.10;35.50;97642.25;3798821;76;43331;-26
2021/04/27 14:32:59;;;;;;;7.75;4.97;;;;;;;15.60;35.25;97630.08;3805286;76;44042;-26
2021/04/27 14:38:06;;;;;;;9.80;5.45;;;;;;;15.22;36.20;97622.66;3799562;77;44220;-26
2021/04/27 14:43:13;;;;;;;8.58;5.72;;;;;;;15.55;35.03;97620.39;3806036;76;44030;-26
2021/04/27 14:48:19;;;;;;;8.13;5.28;;;;;;;15.82;34.91;97618.92;3799046;76;43530;-27
2021/04/27 14:53:26;;;;;;;5.95;5.12;;;;;;;16.45;33.64;97622.32;3799880;77;44014;-27
2021/04/27 14:58:32;;;;;;;6.47;5.22;;;;;;;16.38;34.89;97613.89;3803633;77;44060;-26
2021/04/27 15:03:38;;;;;;;6.87;5.20;;;;;;;16.69;33.36;97602.69;3804140;76;43620;-26
2021/04/27 15:08:44;;;;;;;8.43;4.80;;;;;;;16.32;32.42;97602.02;3804070;76;44464;-27
2021/04/27 15:13:51;;;;;;;9.00;5.20;;;;;;;16.61;34.13;97610.59;3800187;78;44061;-26
2021/04/27 15:18:58;;;;;;;7.72;5.50;;;;;;;16.03;33.29;97598.81;3800195;76;44042;-26
2021/04/27 15:24:06;;;;;;;7.22;5.42;;;;;;;15.94;32.88;97590.08;3801445;78;44026;-26
2021/04/27 15:29:13;;;;;;;5.92;4.83;;;;;;;16.57;34.10;97584.37;3804622;77;43473;-27
2021/04/27 15:34:21;;;;;;;7.53;5.08;;;;;;;17.03;33.28;97589.67;3804809;76;44044;-26
2021/04/27 15:39:27;;;;;;;7.55;5.37;;;;;;;16.87;32.93;97574.72;3802666;77;43358;-26
2021/04/27 15:44:33;;;;;;;7.00;5.30;;;;;;;17.10;31.64;97571.41;3808237;76;44018;-26
2021/04/27 15:49:41;;;;;;;6.47;5.22;;;;;;;17.15;31.42;97576.17;3803158;76;44099;-26
2021/04/27 15:54:51;;;;;;;6.83;5.67;;;;;;;16.72;32.76;97568.26;3790679;77;43374;-26
2021/04/27 15:59:58;;;;;;;6.42;5.15;;;;;;;16.72;31.52;97555.48;3769263;77;44048;-26
2021/04/27 16:05:06;;;;;;;8.55;5.70;;;;;;;16.59;31.65;97556.44;3774813;77;43082;-26
2021/04/27 16:10:14;;;;;;;5.58;5.00;;;;;;;16.89;31.99;97546.77;3767859;77;44070;-26
2021/04/27 16:15:20;;;;;;;6.10;5.45;;;;;;;16.74;32.43;97542.50;3776003;78;44088;-27
2021/04/27 16:20:27;;;;;;;7.87;4.80;;;;;;;15.95;31.84;97540.67;3770715;77;43374;-26
2021/04/27 16:25:34;;;;;;;5.58;4.97;;;;;;;16.23;31.81;97539.47;3774075;77;44080;-26
2021/04/27 16:30:42;;;;;;;5.85;5.00;;;;;;;16.17;32.07;97539.78;3769381;77;43729;-26
2021/04/27 16:35:48;;;;;;;6.28;5.35;;;;;;;15.77;32.66;97534.57;3772909;77;44015;-27
2021/04/27 16:40:54;;;;;;;8.43;4.67;;;;;;;15.66;32.69;97520.62;3769494;78;44074;-26
2021/04/27 16:46:02;;;;;;;6.90;5.25;;;;;;;15.51;32.56;97519.56;3774580;78;43711;-26
2021/04/27 16:51:09;;;;;;;8.25;4.80;;;;;;;15.43;32.56;97520.31;3775199;77;43677;-26
2021/04/27 16:56:15;;;;;;;5.42;4.60;;;;;;;15.07;33.22;97527.42;3774750;77;43294;-27
2021/04/27 17:01:22;;;;;;;5.75;4.90;;;;;;;15.01;32.74;97517.41;3774140;77;44090;-26
2021/04/27 17:06:28;;;;;;;5.62;4.70;;;;;;;15.07;33.35;97520.64;3773236;77;43137;-26
2021/04/27 17:11:34;;;;;;;8.55;4.62;;;;;;;14.76;32.72;97511.29;3773260;78;44054;-26
2021/04/27 17:16:41;;;;;;;8.18;4.33;;;;;;;14.57;35.02;97517.55;3774220;77;42938;-26
2021/04/27 17:21:47;;;;;;;6.97;4.22;;;;;;;14.20;34.97;97519.82;3773394;77;43666;-26
2021/04/27 17:26:54;;;;;;;7.00;4.40;;;;;;;13.85;35.55;97518.94;3774706;78;44089;-27
2021/04/27 17:32:00;;;;;;;5.70;3.67;;;;;;;13.62;35.97;97513.89;3772195;78;44071;-26
2021/04/27 17:37:07;;;;;;;6.92;3.83;;;;;;;13.17;36.59;97522.40;3773460;77;43691;-26
2021/04/27 17:42:13;;;;;;;6.87;3.87;;;;;;;12.99;36.50;97515.34;3773883;77;43678;-27
2021/04/27 17:47:19;;;;;;;7.03;3.77;;;;;;;12.77;37.52;97519.45;3770518;77;42988;-26
2021/04/27 17:52:26;;;;;;;8.20;3.33;;;;;;;12.43;37.88;97519.22;3775363;78;43318;-26
2021/04/27 17:57:32;;;;;;;4.33;3.52;;;;;;;11.95;38.54;97525.19;3798129;76;44110;-26
2021/04/27 18:02:39;;;;;;;4.92;3.67;;;;;;;11.58;39.37;97527.09;3804752;76;43408;-26
2021/04/27 18:07:46;;;;;;;4.15;3.60;;;;;;;11.08;40.14;97530.41;3806432;76;43758;-26
2021/04/27 18:12:53;;;;;;;7.80;3.67;;;;;;;10.75;41.02;97535.32;3805349;76;44584;-26
2021/04/27 18:17:59;;;;;;;5.90;3.75;;;;;;;10.32;41.99;97532.67;3801706;76;44207;-26
2021/04/27 18:23:06;;;;;;;5.78;3.90;;;;;;;10.02;42.36;97535.77;3797426;76;44120;-26
2021/04/27 18:28:13;;;;;;;6.58;3.40;;;;;;;9.84;42.38;97546.30;3803877;78;44058;-26
2021/04/27 18:33:20;;;;;;;3.80;3.40;;;;;;;9.52;43.53;97541.46;3803588;76;43359;-25
2021/04/27 18:38:26;;;;;;;4.35;3.50;;;;;;;9.35;43.92;97545.26;3803801;76;43964;-25
2021/04/27 18:43:33;;;;;;;5.33;4.22;;;;;;;9.08;44.48;97546.03;3802617;77;43533;-26
2021/04/27 18:48:39;;;;;;;4.70;3.70;;;;;;;8.91;44.98;97548.76;3804009;78;42997;-26
2021/04/27 18:53:45;;;;;;;7.50;4.15;;;;;;;8.66;45.75;97550.67;3805610;76;43425;-25
2021/04/27 18:58:50;;;;;;;5.08;3.27;;;;;;;8.45;46.32;97556.53;3804010;76;43759;-25
2021/04/27 19:03:57;;;;;;;6.35;3.60;;;;;;;8.36;46.38;97562.92;3804444;76;44004;-25
2021/04/27 19:09:05;;;;;;;6.05;3.77;;;;;;;8.23;46.80;97559.41;3802598;78;44105;-25
2021/04/27 19:14:11;;;;;;;5.20;4.05;;;;;;;8.12;47.16;97567.27;3803109;77;43718;-25
2021/04/27 19:19:17;;;;;;;5.30;3.70;;;;;;;8.06;47.21;97574.14;3803362;76;44051;-25
2021/04/27 19:24:25;;;;;;;5.90;3.77;;;;;;;8.04;47.07;97565.42;3808823;76;43986;-27
2021/04/27 19:29:32;;;;;;;5.42;3.65;;;;;;;7.96;47.58;97565.42;3804637;76;43673;-27
2021/04/27 19:34:38;;;;;;;5.65;3.77;;;;;;;7.95;47.31;97570.45;3806972;76;43264;-27
2021/04/27 19:39:46;;;;;;;8.18;4.00;;;;;;;7.88;47.98;97570.78;3799066;78;44104;-27
2021/04/27 19:44:52;;;;;;;6.20;3.90;;;;;;;7.78;48.13;97574.42;3797802;77;43324;-27
2021/04/27 19:49:58;;;;;;;5.97;3.98;;;;;;;7.73;47.86;97563.38;3807695;76;44371;-27
2021/04/27 19:55:06;;;;;;;7.00;3.77;;;;;;;7.62;48.48;97563.17;3806695;77;44427;-27
2021/04/27 20:00:15;;;;;;;6.12;3.83;;;;;;;7.60;48.55;97567.85;3804092;77;43414;-27
2021/04/27 20:05:22;;;;;;;6.03;3.80;;;;;;;7.49;48.89;97558.29;3808609;76;44004;-26
2021/04/27 20:10:29;;;;;;;7.30;3.80;;;;;;;7.34;49.49;97555.41;3795413;78;44491;-27
2021/04/27 20:15:41;;;;;;;5.65;4.15;;;;;;;7.24;49.62;97547.97;3807216;77;43682;-27
2021/04/27 20:20:48;;;;;;;6.03;4.17;;;;;;;7.09;50.07;97551.28;3807717;76;43240;-27
2021/04/27 20:25:55;;;;;;;5.53;4.33;;;;;;;6.96;50.92;97545.53;3806899;77;43699;-27
2021/04/27 20:31:02;;;;;;;5.47;4.05;;;;;;;6.91;50.99;97550.02;3805597;77;44220;-27
2021/04/27 20:36:10;;;;;;;8.20;4.33;;;;;;;6.92;50.93;97554.87;3804379;76;43337;-27
2021/04/27 20:41:18;;;;;;;8.08;4.20;;;;;;;6.82;51.45;97547.45;3804758;78;44407;-27
2021/04/27 20:46:24;;;;;;;5.58;4.17;;;;;;;6.73;51.85;97551.91;3806583;77;43700;-28
2021/04/27 20:51:31;;;;;;;7.53;4.10;;;;;;;6.60;52.73;97550.50;3804905;76;43689;-28
2021/04/27 20:56:37;;;;;;;6.55;4.40;;;;;;;6.51;53.61;97547.95;3804773;77;43678;-28
2021/04/27 21:01:43;;;;;;;5.78;4.35;;;;;;;6.45;53.58;97539.54;3806093;77;43451;-28
2021/04/27 21:06:49;;;;;;;7.65;4.70;;;;;;;6.39;53.89;97540.66;3805804;76;43799;-28
2021/04/27 21:11:56;;;;;;;6.95;4.40;;;;;;;6.31;54.53;97552.14;3807070;76;43954;-28
2021/04/27 21:17:03;;;;;;;7.72;4.33;;;;;;;6.24;55.16;97551.09;3804312;77;44049;-28
2021/04/27 21:22:09;;;;;;;7.15;4.58;;;;;;;6.12;55.64;97543.31;3806874;76;43460;-27
2021/04/27 21:27:15;;;;;;;5.95;4.50;;;;;;;6.04;56.04;97543.25;3800908;78;43334;-33
2021/04/27 21:32:21;;;;;;;9.45;4.40;;;;;;;6.02;56.82;97538.55;3807356;77;44515;-28
2021/04/27 21:37:27;;;;;;;7.22;4.50;;;;;;;5.96;56.72;97539.13;3799932;76;44015;-27
2021/04/27 21:42:35;;;;;;;8.80;4.87;;;;;;;5.91;57.63;97543.59;3805774;78;43362;-28
2021/04/27 21:47:42;;;;;;;7.92;4.58;;;;;;;5.83;57.37;97548.37;3799910;78;43440;-28
2021/04/27 21:52:50;;;;;;;6.83;4.50;;;;;;;5.80;57.38;97547.36;3806750;76;43493;-28
2021/04/27 21:57:57;;;;;;;8.23;4.60;;;;;;;5.71;58.85;97544.23;3799586;78;43348;-28
2021/04/27 22:03:05;;;;;;;7.60;4.28;;;;;;;5.72;58.73;97547.26;3801829;77;43405;-27
2021/04/27 22:08:11;;;;;;;6.65;4.60;;;;;;;5.61;60.18;97547.00;3804226;76;43462;-27
2021/04/27 22:13:21;;;;;;;12.58;5.25;;;;;;;5.55;60.06;97546.25;3806911;77;43437;-27
2021/04/27 22:18:25;;;;;;;6.08;4.37;;;;;;;5.47;60.71;97547.00;3803627;77;44160;-27
2021/04/27 22:23:31;;;;;;;7.25;5.05;;;;;;;5.39;60.34;97549.59;3806750;76;44107;-28
2021/04/27 22:28:38;;;;;;;7.13;4.77;;;;;;;5.34;60.79;97551.38;3802873;77;43473;-28
2021/04/27 22:33:44;;;;;;;5.80;4.33;;;;;;;5.32;59.10;97556.54;3806417;77;44063;-28
2021/04/27 22:38:51;;;;;;;7.45;4.87;;;;;;;5.20;60.88;97550.55;3796404;77;43233;-28
2021/04/27 22:43:57;;;;;;;8.08;4.70;;;;;;;5.03;63.67;97550.36;3698992;79;44086;-28
2021/04/27 22:49:05;;;;;;;9.30;4.90;;;;;;;4.94;63.54;97540.55;3806914;76;43969;-28
2021/04/27 22:54:12;;;;;;;7.60;5.08;;;;;;;4.94;63.68;97540.55;3806038;78;43771;-28
2021/04/27 22:59:19;;;;;;;7.37;4.72;;;;;;;4.94;64.65;97537.41;3784113;77;43713;-28
2021/04/27 23:04:25;;;;;;;8.47;4.90;;;;;;;4.94;63.48;97528.05;3776649;77;42795;-28
2021/04/27 23:09:30;;;;;;;6.35;4.62;;;;;;;4.99;63.85;97516.11;3768145;77;44048;-28
2021/04/27 23:14:36;;;;;;;5.75;4.55;;;;;;;5.16;61.93;97511.80;3776568;77;44060;-28
2021/04/27 23:19:42;;;;;;;8.25;4.62;;;;;;;5.24;59.47;97516.71;3775017;77;44054;-27
2021/04/27 23:24:48;;;;;;;6.75;4.53;;;;;;;5.30;60.21;97518.45;3775336;78;44042;-27
2021/04/27 23:29:54;;;;;;;9.23;5.15;;;;;;;5.33;59.37;97514.16;3770116;78;44120;-28
2021/04/27 23:35:01;;;;;;;8.50;5.05;;;;;;;5.29;59.87;97514.09;3772936;77;44789;-28
2021/04/27 23:40:10;;;;;;;8.30;5.40;;;;;;;5.21;60.63;97509.50;3769691;77;68990;-28
2021/04/27 23:45:17;;;;;;;10.32;4.90;;;;;;;5.19;60.54;97502.98;3776005;78;43694;-28
2021/04/27 23:50:25;;;;;;;11.50;5.35;;;;;;;5.19;58.76;97510.14;3771265;77;43425;-28
2021/04/27 23:55:33;;;;;;;7.35;5.15;;;;;;;5.15;59.78;97502.93;3775463;78;44416;-28
